sensor_id;sensor_type;location;lat;lon;timestamp;temperature;humidity
8882;DHT22;4477;48.736;9.176;2022-07-12T00:00:32;11.50;99.90
8882;DHT22;4477;48.736;9.176;2022-07-12T00:02:59;11.60;99.90
8882;DHT22;4477;48.736;9.176;2022-07-12T00:05:26;11.40;99.90
8882;DHT22;4477;48.736;9.176;2022-07-12T00:07:55;11.40;99.90
8882;DHT22;4477;48.736;9.176;2022-07-12T00:20:38;11.20;99.90
8882;DHT22;4477;48.736;9.176;2022-07-12T00:23:06;11.20;99.90
8882;DHT22;4477;48.736;9.176;2022-07-12T00:25:33;11.30;99.90
8882;DHT22;4477;48.736;9.176;2022-07-12T00:28:01;11.30;99.90
8882;DHT22;4477;48.736;9.176;2022-07-12T00:30:27;11.20;99.90
8882;DHT22;4477;48.736;9.176;2022-07-12T00:32:54;11.20;99.90
8882;DHT22;4477;48.736;9.176;2022-07-12T00:35:21;11.10;99.90
8882;DHT22;4477;48.736;9.176;2022-07-12T00:37:48;11.00;99.90
8882;DHT22;4477;48.736;9.176;2022-07-12T00:40:17;11.10;99.90
8882;DHT22;4477;48.736;9.176;2022-07-12T00:42:43;11.20;99.90
8882;DHT22;4477;48.736;9.176;2022-07-12T00:45:11;11.10;99.90
8882;DHT22;4477;48.736;9.176;2022-07-12T00:47:39;11.20;99.90
8882;DHT22;4477;48.736;9.176;2022-07-12T00:50:10;11.10;99.90
8882;DHT22;4477;48.736;9.176;2022-07-12T00:52:38;11.10;99.90
8882;DHT22;4477;48.736;9.176;2022-07-12T00:55:05;11.10;99.90
8882;DHT22;4477;48.736;9.176;2022-07-12T00:57:34;11.10;99.90
8882;DHT22;4477;48.736;9.176;2022-07-12T01:00:02;11.00;99.90
8882;DHT22;4477;48.736;9.176;2022-07-12T01:02:30;11.10;99.90
8882;DHT22;4477;48.736;9.176;2022-07-12T01:04:58;11.20;99.90
8882;DHT22;4477;48.736;9.176;2022-07-12T01:07:26;11.20;99.90
8882;DHT22;4477;48.736;9.176;2022-07-12T01:09:53;11.20;99.90
8882;DHT22;4477;48.736;9.176;2022-07-12T01:12:20;11.30;99.90
8882;DHT22;4477;48.736;9.176;2022-07-12T01:14:49;11.40;99.90
8882;DHT22;4477;48.736;9.176;2022-07-12T01:17:17;11.50;99.90
8882;DHT22;4477;48.736;9.176;2022-07-12T01:19:44;11.50;99.90
8882;DHT22;4477;48.736;9.176;2022-07-12T01:22:14;11.50;99.90
8882;DHT22;4477;48.736;9.176;2022-07-12T01:24:43;11.50;99.90
8882;DHT22;4477;48.736;9.176;2022-07-12T01:27:11;11.50;99.90
8882;DHT22;4477;48.736;9.176;2022-07-12T01:29:39;11.50;99.90
8882;DHT22;4477;48.736;9.176;2022-07-12T01:32:07;11.40;99.90
8882;DHT22;4477;48.736;9.176;2022-07-12T01:34:52;11.40;99.90
8882;DHT22;4477;48.736;9.176;2022-07-12T01:37:20;11.40;99.90
8882;DHT22;4477;48.736;9.176;2022-07-12T01:39:50;11.40;99.90
8882;DHT22;4477;48.736;9.176;2022-07-12T01:42:18;11.50;99.90
8882;DHT22;4477;48.736;9.176;2022-07-12T01:44:45;11.50;99.90
8882;DHT22;4477;48.736;9.176;2022-07-12T01:47:12;11.40;99.90
8882;DHT22;4477;48.736;9.176;2022-07-12T01:49:39;11.40;99.90
8882;DHT22;4477;48.736;9.176;2022-07-12T01:52:06;11.40;99.90
8882;DHT22;4477;48.736;9.176;2022-07-12T01:54:34;11.40;99.90
8882;DHT22;4477;48.736;9.176;2022-07-12T01:57:03;11.30;99.90
8882;DHT22;4477;48.736;9.176;2022-07-12T01:59:30;11.30;99.90
8882;DHT22;4477;48.736;9.176;2022-07-12T02:01:57;11.20;99.90
8882;DHT22;4477;48.736;9.176;2022-07-12T02:04:24;11.10;99.90
8882;DHT22;4477;48.736;9.176;2022-07-12T02:06:51;11.00;99.90
8882;DHT22;4477;48.736;9.176;2022-07-12T02:09:18;10.90;99.90
8882;DHT22;4477;48.736;9.176;2022-07-12T02:11:45;10.90;99.90
8882;DHT22;4477;48.736;9.176;2022-07-12T02:14:15;10.90;99.90
8882;DHT22;4477;48.736;9.176;2022-07-12T02:16:43;10.90;99.90
8882;DHT22;4477;48.736;9.176;2022-07-12T02:19:12;10.80;99.90
8882;DHT22;4477;48.736;9.176;2022-07-12T02:21:40;10.90;99.90
8882;DHT22;4477;48.736;9.176;2022-07-12T02:24:07;10.90;99.90
8882;DHT22;4477;48.736;9.176;2022-07-12T02:26:35;10.90;99.90
8882;DHT22;4477;48.736;9.176;2022-07-12T02:29:02;10.90;99.90
8882;DHT22;4477;48.736;9.176;2022-07-12T02:31:31;11.00;99.90
8882;DHT22;4477;48.736;9.176;2022-07-12T02:33:59;10.90;99.90
8882;DHT22;4477;48.736;9.176;2022-07-12T02:36:26;10.70;99.90
8882;DHT22;4477;48.736;9.176;2022-07-12T02:38:53;10.50;99.90
8882;DHT22;4477;48.736;9.176;2022-07-12T02:41:20;10.40;99.90
8882;DHT22;4477;48.736;9.176;2022-07-12T02:43:46;10.20;99.90
8882;DHT22;4477;48.736;9.176;2022-07-12T02:46:13;10.20;99.90
8882;DHT22;4477;48.736;9.176;2022-07-12T02:48:42;10.20;99.90
8882;DHT22;4477;48.736;9.176;2022-07-12T02:51:09;10.10;99.90
8882;DHT22;4477;48.736;9.176;2022-07-12T02:53:36;10.00;99.90
8882;DHT22;4477;48.736;9.176;2022-07-12T02:56:04;9.90;99.90
8882;DHT22;4477;48.736;9.176;2022-07-12T02:58:31;10.10;99.90
8882;DHT22;4477;48.736;9.176;2022-07-12T03:00:58;10.10;99.90
8882;DHT22;4477;48.736;9.176;2022-07-12T03:03:25;10.10;99.90
8882;DHT22;4477;48.736;9.176;2022-07-12T03:05:53;10.10;99.90
8882;DHT22;4477;48.736;9.176;2022-07-12T03:08:20;10.10;99.90
8882;DHT22;4477;48.736;9.176;2022-07-12T03:10:47;10.10;99.90
8882;DHT22;4477;48.736;9.176;2022-07-12T03:13:14;10.00;99.90
8882;DHT22;4477;48.736;9.176;2022-07-12T03:15:41;10.00;99.90
8882;DHT22;4477;48.736;9.176;2022-07-12T03:18:07;10.00;99.90
8882;DHT22;4477;48.736;9.176;2022-07-12T03:20:35;9.80;99.90
8882;DHT22;4477;48.736;9.176;2022-07-12T03:23:03;9.80;99.90
8882;DHT22;4477;48.736;9.176;2022-07-12T03:25:30;9.80;99.90
8882;DHT22;4477;48.736;9.176;2022-07-12T03:27:57;9.90;99.90
8882;DHT22;4477;48.736;9.176;2022-07-12T03:30:25;10.00;99.90
8882;DHT22;4477;48.736;9.176;2022-07-12T03:32:52;10.00;99.90
8882;DHT22;4477;48.736;9.176;2022-07-12T03:35:20;10.10;99.90
8882;DHT22;4477;48.736;9.176;2022-07-12T03:37:48;10.10;99.90
8882;DHT22;4477;48.736;9.176;2022-07-12T03:40:18;10.30;99.90
8882;DHT22;4477;48.736;9.176;2022-07-12T03:42:46;10.50;99.90
8882;DHT22;4477;48.736;9.176;2022-07-12T03:45:14;10.60;99.90
8882;DHT22;4477;48.736;9.176;2022-07-12T03:47:41;10.60;99.90
8882;DHT22;4477;48.736;9.176;2022-07-12T03:50:10;10.60;99.90
8882;DHT22;4477;48.736;9.176;2022-07-12T03:52:38;10.60;99.90
8882;DHT22;4477;48.736;9.176;2022-07-12T03:55:06;10.60;99.90
8882;DHT22;4477;48.736;9.176;2022-07-12T03:57:35;10.50;99.90
8882;DHT22;4477;48.736;9.176;2022-07-12T04:00:04;10.60;99.90
8882;DHT22;4477;48.736;9.176;2022-07-12T04:02:31;10.60;99.90
8882;DHT22;4477;48.736;9.176;2022-07-12T04:04:58;10.60;99.90
8882;DHT22;4477;48.736;9.176;2022-07-12T04:07:25;10.50;99.90
8882;DHT22;4477;48.736;9.176;2022-07-12T04:09:52;10.60;99.90
8882;DHT22;4477;48.736;9.176;2022-07-12T04:12:19;10.60;99.90
8882;DHT22;4477;48.736;9.176;2022-07-12T04:14:47;10.60;99.90
8882;DHT22;4477;48.736;9.176;2022-07-12T04:17:14;10.60;99.90
8882;DHT22;4477;48.736;9.176;2022-07-12T04:19:41;10.80;99.90
8882;DHT22;4477;48.736;9.176;2022-07-12T04:22:08;11.00;99.90
8882;DHT22;4477;48.736;9.176;2022-07-12T04:24:34;11.10;99.90
8882;DHT22;4477;48.736;9.176;2022-07-12T04:27:01;11.20;99.90
8882;DHT22;4477;48.736;9.176;2022-07-12T04:29:28;11.20;99.90
8882;DHT22;4477;48.736;9.176;2022-07-12T04:31:56;11.30;99.90
8882;DHT22;4477;48.736;9.176;2022-07-12T04:34:23;11.40;99.90
8882;DHT22;4477;48.736;9.176;2022-07-12T04:36:50;11.50;99.90
8882;DHT22;4477;48.736;9.176;2022-07-12T04:39:17;11.60;99.90
8882;DHT22;4477;48.736;9.176;2022-07-12T04:41:44;11.70;99.90
8882;DHT22;4477;48.736;9.176;2022-07-12T04:44:12;11.80;99.90
8882;DHT22;4477;48.736;9.176;2022-07-12T04:46:39;11.90;99.90
8882;DHT22;4477;48.736;9.176;2022-07-12T04:49:07;12.00;99.90
8882;DHT22;4477;48.736;9.176;2022-07-12T04:51:34;12.10;99.90
8882;DHT22;4477;48.736;9.176;2022-07-12T04:54:01;12.30;99.90
8882;DHT22;4477;48.736;9.176;2022-07-12T04:56:29;12.70;99.90
8882;DHT22;4477;48.736;9.176;2022-07-12T04:58:56;13.00;99.90
8882;DHT22;4477;48.736;9.176;2022-07-12T05:01:22;13.40;99.90
8882;DHT22;4477;48.736;9.176;2022-07-12T05:03:50;13.80;99.90
8882;DHT22;4477;48.736;9.176;2022-07-12T05:06:18;14.30;99.90
8882;DHT22;4477;48.736;9.176;2022-07-12T05:08:45;14.60;99.90
8882;DHT22;4477;48.736;9.176;2022-07-12T05:11:12;15.20;99.90
8882;DHT22;4477;48.736;9.176;2022-07-12T05:13:39;15.60;99.90
8882;DHT22;4477;48.736;9.176;2022-07-12T05:16:07;16.20;99.90
8882;DHT22;4477;48.736;9.176;2022-07-12T05:18:34;16.80;99.90
8882;DHT22;4477;48.736;9.176;2022-07-12T05:21:02;17.40;99.90
8882;DHT22;4477;48.736;9.176;2022-07-12T05:23:30;18.20;99.90
8882;DHT22;4477;48.736;9.176;2022-07-12T05:25:57;18.80;99.90
8882;DHT22;4477;48.736;9.176;2022-07-12T05:28:24;19.40;99.90
8882;DHT22;4477;48.736;9.176;2022-07-12T05:30:51;20.00;99.90
8882;DHT22;4477;48.736;9.176;2022-07-12T05:33:18;20.60;99.90
8882;DHT22;4477;48.736;9.176;2022-07-12T05:35:45;21.10;99.90
8882;DHT22;4477;48.736;9.176;2022-07-12T05:38:13;21.50;99.90
8882;DHT22;4477;48.736;9.176;2022-07-12T05:40:41;21.70;99.90
8882;DHT22;4477;48.736;9.176;2022-07-12T05:43:08;22.20;99.90
8882;DHT22;4477;48.736;9.176;2022-07-12T05:45:35;22.30;99.90
8882;DHT22;4477;48.736;9.176;2022-07-12T05:48:03;22.30;99.90
8882;DHT22;4477;48.736;9.176;2022-07-12T05:50:30;22.30;99.90
8882;DHT22;4477;48.736;9.176;2022-07-12T05:52:56;22.40;99.90
8882;DHT22;4477;48.736;9.176;2022-07-12T05:55:42;22.10;99.90
8882;DHT22;4477;48.736;9.176;2022-07-12T05:58:10;21.70;99.90
8882;DHT22;4477;48.736;9.176;2022-07-12T06:00:37;21.60;99.90
8882;DHT22;4477;48.736;9.176;2022-07-12T06:03:04;21.70;99.90
8882;DHT22;4477;48.736;9.176;2022-07-12T06:05:31;21.80;99.90
8882;DHT22;4477;48.736;9.176;2022-07-12T06:07:58;21.80;99.90
8882;DHT22;4477;48.736;9.176;2022-07-12T06:10:25;21.80;99.90
8882;DHT22;4477;48.736;9.176;2022-07-12T06:12:53;21.80;99.90
8882;DHT22;4477;48.736;9.176;2022-07-12T06:15:20;21.70;99.10
8882;DHT22;4477;48.736;9.176;2022-07-12T06:17:47;21.90;99.20
8882;DHT22;4477;48.736;9.176;2022-07-12T06:20:14;22.20;98.40
8882;DHT22;4477;48.736;9.176;2022-07-12T06:22:41;22.10;97.00
8882;DHT22;4477;48.736;9.176;2022-07-12T06:25:08;21.70;97.00
8882;DHT22;4477;48.736;9.176;2022-07-12T06:27:35;22.00;97.90
8882;DHT22;4477;48.736;9.176;2022-07-12T06:30:05;22.20;95.80
8882;DHT22;4477;48.736;9.176;2022-07-12T06:32:33;22.50;95.40
8882;DHT22;4477;48.736;9.176;2022-07-12T06:34:59;22.60;94.10
8882;DHT22;4477;48.736;9.176;2022-07-12T06:37:26;22.30;94.00
8882;DHT22;4477;48.736;9.176;2022-07-12T06:39:53;22.50;94.10
8882;DHT22;4477;48.736;9.176;2022-07-12T06:42:20;22.50;93.40
8882;DHT22;4477;48.736;9.176;2022-07-12T06:44:47;22.60;93.90
8882;DHT22;4477;48.736;9.176;2022-07-12T06:47:15;22.80;93.00
8882;DHT22;4477;48.736;9.176;2022-07-12T06:49:42;22.80;91.70
8882;DHT22;4477;48.736;9.176;2022-07-12T06:52:09;23.00;91.70
8882;DHT22;4477;48.736;9.176;2022-07-12T06:54:36;23.20;91.90
8882;DHT22;4477;48.736;9.176;2022-07-12T06:57:03;23.20;91.70
8882;DHT22;4477;48.736;9.176;2022-07-12T06:59:31;23.20;91.00
8882;DHT22;4477;48.736;9.176;2022-07-12T07:01:58;23.10;91.30
8882;DHT22;4477;48.736;9.176;2022-07-12T07:04:26;23.30;92.40
8882;DHT22;4477;48.736;9.176;2022-07-12T07:06:53;23.40;90.50
8882;DHT22;4477;48.736;9.176;2022-07-12T07:09:20;23.80;89.60
8882;DHT22;4477;48.736;9.176;2022-07-12T07:11:47;24.00;90.10
8882;DHT22;4477;48.736;9.176;2022-07-12T07:14:17;24.20;88.40
8882;DHT22;4477;48.736;9.176;2022-07-12T07:16:43;24.40;89.40
8882;DHT22;4477;48.736;9.176;2022-07-12T07:19:10;24.20;88.40
8882;DHT22;4477;48.736;9.176;2022-07-12T07:21:38;23.80;88.20
8882;DHT22;4477;48.736;9.176;2022-07-12T07:24:07;24.20;88.30
8882;DHT22;4477;48.736;9.176;2022-07-12T07:26:35;24.60;84.30
8882;DHT22;4477;48.736;9.176;2022-07-12T07:29:02;24.80;82.30
8882;DHT22;4477;48.736;9.176;2022-07-12T07:31:46;25.10;82.30
8882;DHT22;4477;48.736;9.176;2022-07-12T07:34:13;25.40;78.40
8882;DHT22;4477;48.736;9.176;2022-07-12T07:36:42;25.90;78.90
8882;DHT22;4477;48.736;9.176;2022-07-12T07:39:08;25.90;74.30
8882;DHT22;4477;48.736;9.176;2022-07-12T07:41:37;26.00;77.60
8882;DHT22;4477;48.736;9.176;2022-07-12T07:44:04;26.30;74.00
8882;DHT22;4477;48.736;9.176;2022-07-12T07:46:31;26.60;68.10
8882;DHT22;4477;48.736;9.176;2022-07-12T07:48:58;26.90;67.10
8882;DHT22;4477;48.736;9.176;2022-07-12T07:51:25;26.50;69.20
8882;DHT22;4477;48.736;9.176;2022-07-12T07:53:53;26.50;68.00
8882;DHT22;4477;48.736;9.176;2022-07-12T07:56:20;26.30;68.50
8882;DHT22;4477;48.736;9.176;2022-07-12T07:58:47;26.40;71.80
8882;DHT22;4477;48.736;9.176;2022-07-12T08:01:14;27.00;71.80
8882;DHT22;4477;48.736;9.176;2022-07-12T08:03:41;27.00;70.00
8882;DHT22;4477;48.736;9.176;2022-07-12T08:06:08;27.20;71.00
8882;DHT22;4477;48.736;9.176;2022-07-12T08:08:34;27.40;70.10
8882;DHT22;4477;48.736;9.176;2022-07-12T08:11:03;27.50;67.90
8882;DHT22;4477;48.736;9.176;2022-07-12T08:13:30;27.90;67.50
8882;DHT22;4477;48.736;9.176;2022-07-12T08:15:57;28.10;66.40
8882;DHT22;4477;48.736;9.176;2022-07-12T08:18:24;27.40;64.30
8882;DHT22;4477;48.736;9.176;2022-07-12T08:20:52;27.00;64.00
8882;DHT22;4477;48.736;9.176;2022-07-12T08:23:18;26.90;68.50
8882;DHT22;4477;48.736;9.176;2022-07-12T08:25:45;27.30;65.00
8882;DHT22;4477;48.736;9.176;2022-07-12T08:28:14;27.90;65.70
8882;DHT22;4477;48.736;9.176;2022-07-12T08:30:41;27.90;62.10
8882;DHT22;4477;48.736;9.176;2022-07-12T08:33:09;27.40;69.40
8882;DHT22;4477;48.736;9.176;2022-07-12T08:35:36;27.00;65.20
8882;DHT22;4477;48.736;9.176;2022-07-12T08:38:03;26.40;67.50
8882;DHT22;4477;48.736;9.176;2022-07-12T08:40:30;26.30;66.20
8882;DHT22;4477;48.736;9.176;2022-07-12T08:42:57;26.30;68.20
8882;DHT22;4477;48.736;9.176;2022-07-12T08:45:27;26.80;68.20
8882;DHT22;4477;48.736;9.176;2022-07-12T08:47:54;27.00;67.60
8882;DHT22;4477;48.736;9.176;2022-07-12T08:50:22;27.10;67.80
8882;DHT22;4477;48.736;9.176;2022-07-12T08:52:51;27.20;62.70
8882;DHT22;4477;48.736;9.176;2022-07-12T08:55:21;27.40;65.90
8882;DHT22;4477;48.736;9.176;2022-07-12T08:57:49;27.50;65.20
8882;DHT22;4477;48.736;9.176;2022-07-12T09:00:16;28.00;65.40
8882;DHT22;4477;48.736;9.176;2022-07-12T09:02:47;28.20;61.90
8882;DHT22;4477;48.736;9.176;2022-07-12T09:05:16;28.10;61.70
8882;DHT22;4477;48.736;9.176;2022-07-12T09:07:43;28.00;59.80
8882;DHT22;4477;48.736;9.176;2022-07-12T09:10:11;27.90;66.20
8882;DHT22;4477;48.736;9.176;2022-07-12T09:12:39;28.00;60.00
8882;DHT22;4477;48.736;9.176;2022-07-12T09:15:17;27.80;62.90
8882;DHT22;4477;48.736;9.176;2022-07-12T09:18:04;27.70;62.20
8882;DHT22;4477;48.736;9.176;2022-07-12T09:20:39;28.10;62.30
8882;DHT22;4477;48.736;9.176;2022-07-12T09:23:09;28.90;59.70
8882;DHT22;4477;48.736;9.176;2022-07-12T09:25:36;28.70;60.50
8882;DHT22;4477;48.736;9.176;2022-07-12T09:28:05;29.00;60.90
8882;DHT22;4477;48.736;9.176;2022-07-12T09:30:33;29.30;61.90
8882;DHT22;4477;48.736;9.176;2022-07-12T09:33:05;29.20;55.90
8882;DHT22;4477;48.736;9.176;2022-07-12T09:36:00;29.70;60.70
8882;DHT22;4477;48.736;9.176;2022-07-12T09:38:33;30.40;58.50
8882;DHT22;4477;48.736;9.176;2022-07-12T09:41:01;30.60;55.30
8882;DHT22;4477;48.736;9.176;2022-07-12T09:43:28;30.60;57.00
8882;DHT22;4477;48.736;9.176;2022-07-12T09:45:55;30.70;57.00
8882;DHT22;4477;48.736;9.176;2022-07-12T09:48:26;30.40;55.20
8882;DHT22;4477;48.736;9.176;2022-07-12T09:50:53;30.80;56.80
8882;DHT22;4477;48.736;9.176;2022-07-12T09:53:25;30.10;53.90
8882;DHT22;4477;48.736;9.176;2022-07-12T09:55:53;29.00;54.50
8882;DHT22;4477;48.736;9.176;2022-07-12T09:58:24;28.80;56.40
8882;DHT22;4477;48.736;9.176;2022-07-12T10:00:53;28.20;55.80
8882;DHT22;4477;48.736;9.176;2022-07-12T10:03:25;28.30;55.60
8882;DHT22;4477;48.736;9.176;2022-07-12T10:05:55;27.40;58.20
8882;DHT22;4477;48.736;9.176;2022-07-12T10:08:22;27.70;59.90
8882;DHT22;4477;48.736;9.176;2022-07-12T10:10:49;27.30;57.30
8882;DHT22;4477;48.736;9.176;2022-07-12T10:13:19;26.30;59.40
8882;DHT22;4477;48.736;9.176;2022-07-12T10:15:48;25.70;62.00
8882;DHT22;4477;48.736;9.176;2022-07-12T10:18:19;25.60;65.50
8882;DHT22;4477;48.736;9.176;2022-07-12T10:20:49;26.80;59.00
8882;DHT22;4477;48.736;9.176;2022-07-12T10:23:30;27.80;64.50
8882;DHT22;4477;48.736;9.176;2022-07-12T10:26:00;29.10;63.80
8882;DHT22;4477;48.736;9.176;2022-07-12T10:28:55;29.90;55.10
8882;DHT22;4477;48.736;9.176;2022-07-12T10:31:24;30.40;59.80
8882;DHT22;4477;48.736;9.176;2022-07-12T10:34:12;31.20;51.80
8882;DHT22;4477;48.736;9.176;2022-07-12T10:40:16;30.60;56.50
8882;DHT22;4477;48.736;9.176;2022-07-12T10:46:22;31.30;51.30
8882;DHT22;4477;48.736;9.176;2022-07-12T10:48:50;31.10;53.20
8882;DHT22;4477;48.736;9.176;2022-07-12T10:51:18;31.00;54.10
8882;DHT22;4477;48.736;9.176;2022-07-12T10:53:46;30.00;53.80
8882;DHT22;4477;48.736;9.176;2022-07-12T10:56:22;29.30;53.90
8882;DHT22;4477;48.736;9.176;2022-07-12T10:58:52;29.50;52.70
8882;DHT22;4477;48.736;9.176;2022-07-12T11:01:21;29.10;53.00
8882;DHT22;4477;48.736;9.176;2022-07-12T11:03:49;29.00;54.00
8882;DHT22;4477;48.736;9.176;2022-07-12T11:06:17;29.50;57.10
8882;DHT22;4477;48.736;9.176;2022-07-12T11:09:03;29.70;59.60
8882;DHT22;4477;48.736;9.176;2022-07-12T11:11:33;30.40;56.40
8882;DHT22;4477;48.736;9.176;2022-07-12T11:14:01;30.30;54.50
8882;DHT22;4477;48.736;9.176;2022-07-12T11:16:29;30.60;56.50
8882;DHT22;4477;48.736;9.176;2022-07-12T11:18:57;30.30;52.70
8882;DHT22;4477;48.736;9.176;2022-07-12T11:21:24;30.60;53.60
8882;DHT22;4477;48.736;9.176;2022-07-12T11:23:51;30.80;54.20
8882;DHT22;4477;48.736;9.176;2022-07-12T11:26:18;31.30;51.10
8882;DHT22;4477;48.736;9.176;2022-07-12T11:28:48;31.20;51.20
8882;DHT22;4477;48.736;9.176;2022-07-12T11:31:16;30.90;56.20
8882;DHT22;4477;48.736;9.176;2022-07-12T11:33:46;31.10;55.00
8882;DHT22;4477;48.736;9.176;2022-07-12T11:36:14;31.00;53.20
8882;DHT22;4477;48.736;9.176;2022-07-12T11:38:43;31.10;47.80
8882;DHT22;4477;48.736;9.176;2022-07-12T11:41:11;31.00;52.20
8882;DHT22;4477;48.736;9.176;2022-07-12T11:43:39;30.60;51.00
8882;DHT22;4477;48.736;9.176;2022-07-12T11:46:08;30.00;52.40
8882;DHT22;4477;48.736;9.176;2022-07-12T11:48:36;29.90;55.40
8882;DHT22;4477;48.736;9.176;2022-07-12T11:51:04;29.90;53.70
8882;DHT22;4477;48.736;9.176;2022-07-12T11:53:33;29.90;55.40
8882;DHT22;4477;48.736;9.176;2022-07-12T11:56:02;29.40;55.10
8882;DHT22;4477;48.736;9.176;2022-07-12T11:58:30;29.20;53.10
8882;DHT22;4477;48.736;9.176;2022-07-12T12:00:58;29.10;53.20
8882;DHT22;4477;48.736;9.176;2022-07-12T12:03:27;29.20;56.20
8882;DHT22;4477;48.736;9.176;2022-07-12T12:05:56;29.00;56.00
8882;DHT22;4477;48.736;9.176;2022-07-12T12:08:23;29.60;58.90
8882;DHT22;4477;48.736;9.176;2022-07-12T12:10:55;30.40;56.80
8882;DHT22;4477;48.736;9.176;2022-07-12T12:13:23;30.70;55.40
8882;DHT22;4477;48.736;9.176;2022-07-12T12:15:52;31.20;53.70
8882;DHT22;4477;48.736;9.176;2022-07-12T12:18:38;31.40;51.50
8882;DHT22;4477;48.736;9.176;2022-07-12T12:21:07;31.30;47.30
8882;DHT22;4477;48.736;9.176;2022-07-12T12:23:35;30.80;51.50
8882;DHT22;4477;48.736;9.176;2022-07-12T12:26:09;31.10;47.20
8882;DHT22;4477;48.736;9.176;2022-07-12T12:28:47;30.70;48.00
8882;DHT22;4477;48.736;9.176;2022-07-12T12:31:16;30.80;49.50
8882;DHT22;4477;48.736;9.176;2022-07-12T12:33:45;31.00;48.10
8882;DHT22;4477;48.736;9.176;2022-07-12T12:36:18;30.90;49.40
8882;DHT22;4477;48.736;9.176;2022-07-12T12:38:46;31.00;53.00
8882;DHT22;4477;48.736;9.176;2022-07-12T12:41:14;30.70;47.80
8882;DHT22;4477;48.736;9.176;2022-07-12T12:43:42;31.20;52.30
8882;DHT22;4477;48.736;9.176;2022-07-12T12:46:10;32.00;51.40
8882;DHT22;4477;48.736;9.176;2022-07-12T12:48:37;32.60;52.20
8882;DHT22;4477;48.736;9.176;2022-07-12T12:51:13;33.00;51.50
8882;DHT22;4477;48.736;9.176;2022-07-12T12:53:41;33.30;50.40
8882;DHT22;4477;48.736;9.176;2022-07-12T12:56:10;32.90;48.20
8882;DHT22;4477;48.736;9.176;2022-07-12T12:58:37;33.10;46.80
8882;DHT22;4477;48.736;9.176;2022-07-12T13:01:05;33.50;49.30
8882;DHT22;4477;48.736;9.176;2022-07-12T13:03:32;34.10;46.30
8882;DHT22;4477;48.736;9.176;2022-07-12T13:06:00;33.50;42.40
8882;DHT22;4477;48.736;9.176;2022-07-12T13:08:29;32.70;45.50
8882;DHT22;4477;48.736;9.176;2022-07-12T13:10:56;32.90;48.30
8882;DHT22;4477;48.736;9.176;2022-07-12T13:13:40;33.20;47.70
8882;DHT22;4477;48.736;9.176;2022-07-12T13:16:07;33.60;47.50
8882;DHT22;4477;48.736;9.176;2022-07-12T13:18:34;33.60;48.40
8882;DHT22;4477;48.736;9.176;2022-07-12T13:21:01;33.80;43.30
8882;DHT22;4477;48.736;9.176;2022-07-12T13:23:29;34.00;44.40
8882;DHT22;4477;48.736;9.176;2022-07-12T13:25:56;34.80;45.00
8882;DHT22;4477;48.736;9.176;2022-07-12T13:28:23;34.80;46.70
8882;DHT22;4477;48.736;9.176;2022-07-12T13:30:50;34.40;39.30
8882;DHT22;4477;48.736;9.176;2022-07-12T13:33:20;34.00;42.50
8882;DHT22;4477;48.736;9.176;2022-07-12T13:35:47;34.00;45.60
8882;DHT22;4477;48.736;9.176;2022-07-12T13:38:14;34.30;40.80
8882;DHT22;4477;48.736;9.176;2022-07-12T13:40:42;34.20;44.20
8882;DHT22;4477;48.736;9.176;2022-07-12T13:43:09;34.30;43.10
8882;DHT22;4477;48.736;9.176;2022-07-12T13:45:36;34.40;43.70
8882;DHT22;4477;48.736;9.176;2022-07-12T13:48:04;34.20;42.80
8882;DHT22;4477;48.736;9.176;2022-07-12T13:50:31;33.50;42.80
8882;DHT22;4477;48.736;9.176;2022-07-12T13:52:58;33.40;47.70
8882;DHT22;4477;48.736;9.176;2022-07-12T13:55:25;34.40;44.10
8882;DHT22;4477;48.736;9.176;2022-07-12T13:57:54;35.60;43.40
8882;DHT22;4477;48.736;9.176;2022-07-12T14:00:21;35.80;44.40
8882;DHT22;4477;48.736;9.176;2022-07-12T14:02:48;35.70;41.80
8882;DHT22;4477;48.736;9.176;2022-07-12T14:05:16;35.40;38.50
8882;DHT22;4477;48.736;9.176;2022-07-12T14:07:45;35.50;39.80
8882;DHT22;4477;48.736;9.176;2022-07-12T14:10:13;35.60;40.80
8882;DHT22;4477;48.736;9.176;2022-07-12T14:12:40;36.60;41.40
8882;DHT22;4477;48.736;9.176;2022-07-12T14:15:10;36.90;42.10
8882;DHT22;4477;48.736;9.176;2022-07-12T14:17:43;36.70;41.10
8882;DHT22;4477;48.736;9.176;2022-07-12T14:20:11;36.90;41.10
8882;DHT22;4477;48.736;9.176;2022-07-12T14:22:39;36.50;36.20
8882;DHT22;4477;48.736;9.176;2022-07-12T14:25:08;35.80;38.50
8882;DHT22;4477;48.736;9.176;2022-07-12T14:27:37;36.00;41.40
8882;DHT22;4477;48.736;9.176;2022-07-12T14:30:08;36.00;42.10
8882;DHT22;4477;48.736;9.176;2022-07-12T14:32:36;36.70;40.20
8882;DHT22;4477;48.736;9.176;2022-07-12T14:35:04;37.20;39.80
8882;DHT22;4477;48.736;9.176;2022-07-12T14:37:32;37.20;40.10
8882;DHT22;4477;48.736;9.176;2022-07-12T14:39:59;36.10;35.20
8882;DHT22;4477;48.736;9.176;2022-07-12T14:42:26;35.60;38.50
8882;DHT22;4477;48.736;9.176;2022-07-12T14:44:53;35.20;37.40
8882;DHT22;4477;48.736;9.176;2022-07-12T14:47:21;35.90;38.90
8882;DHT22;4477;48.736;9.176;2022-07-12T14:49:48;36.30;37.70
8882;DHT22;4477;48.736;9.176;2022-07-12T14:52:16;36.40;41.00
8882;DHT22;4477;48.736;9.176;2022-07-12T14:54:46;36.70;35.70
8882;DHT22;4477;48.736;9.176;2022-07-12T14:57:13;36.50;34.20
8882;DHT22;4477;48.736;9.176;2022-07-12T14:59:39;36.90;32.70
8882;DHT22;4477;48.736;9.176;2022-07-12T15:02:08;35.90;36.10
8882;DHT22;4477;48.736;9.176;2022-07-12T15:04:36;36.70;39.10
8882;DHT22;4477;48.736;9.176;2022-07-12T15:07:03;37.40;36.10
8882;DHT22;4477;48.736;9.176;2022-07-12T15:09:30;38.10;41.40
8882;DHT22;4477;48.736;9.176;2022-07-12T15:11:58;38.60;31.70
8882;DHT22;4477;48.736;9.176;2022-07-12T15:14:24;39.10;34.90
8882;DHT22;4477;48.736;9.176;2022-07-12T15:16:51;39.00;36.70
8882;DHT22;4477;48.736;9.176;2022-07-12T15:19:18;38.30;33.40
8882;DHT22;4477;48.736;9.176;2022-07-12T15:21:46;38.10;34.40
8882;DHT22;4477;48.736;9.176;2022-07-12T15:24:13;37.50;35.90
8882;DHT22;4477;48.736;9.176;2022-07-12T15:26:41;38.20;37.00
8882;DHT22;4477;48.736;9.176;2022-07-12T15:29:07;38.70;35.30
8882;DHT22;4477;48.736;9.176;2022-07-12T15:31:34;38.60;36.80
8882;DHT22;4477;48.736;9.176;2022-07-12T15:34:01;39.00;36.10
8882;DHT22;4477;48.736;9.176;2022-07-12T15:36:28;38.80;30.20
8882;DHT22;4477;48.736;9.176;2022-07-12T15:38:56;38.50;36.50
8882;DHT22;4477;48.736;9.176;2022-07-12T15:41:23;38.70;35.50
8882;DHT22;4477;48.736;9.176;2022-07-12T15:43:50;38.90;40.90
8882;DHT22;4477;48.736;9.176;2022-07-12T15:46:17;39.30;34.20
8882;DHT22;4477;48.736;9.176;2022-07-12T15:48:44;38.90;35.10
8882;DHT22;4477;48.736;9.176;2022-07-12T15:51:12;39.50;35.70
8882;DHT22;4477;48.736;9.176;2022-07-12T15:53:39;39.50;32.00
8882;DHT22;4477;48.736;9.176;2022-07-12T15:56:08;39.40;35.00
8882;DHT22;4477;48.736;9.176;2022-07-12T15:58:37;39.10;34.20
8882;DHT22;4477;48.736;9.176;2022-07-12T16:01:05;38.80;35.70
8882;DHT22;4477;48.736;9.176;2022-07-12T16:03:33;39.20;34.80
8882;DHT22;4477;48.736;9.176;2022-07-12T16:06:01;39.20;33.70
8882;DHT22;4477;48.736;9.176;2022-07-12T16:08:29;38.90;35.60
8882;DHT22;4477;48.736;9.176;2022-07-12T16:10:56;39.00;35.10
8882;DHT22;4477;48.736;9.176;2022-07-12T16:13:25;38.10;34.10
8882;DHT22;4477;48.736;9.176;2022-07-12T16:15:52;38.40;33.30
8882;DHT22;4477;48.736;9.176;2022-07-12T16:18:21;38.50;33.80
8882;DHT22;4477;48.736;9.176;2022-07-12T16:20:50;38.10;34.60
8882;DHT22;4477;48.736;9.176;2022-07-12T16:23:17;36.60;37.50
8882;DHT22;4477;48.736;9.176;2022-07-12T16:25:44;33.90;36.00